Time;durP1;ratioP1;P1;durP2;ratioP2;P2;SDS_P1;SDS_P2;PMS_P1;PMS_P2;Temp;Humidity;BMP_temperature;BMP_pressure;BME280_temperature;BME280_humidity;BME280_pressure;Samples;Min_cycle;Max_cycle;Signal;HPM_P1;HPM_P2
2022/10/08 00:00:21;;;;;;;26.13;16.45;;;;;;;9.88;100.00;96637.22;5144224;23;20077;-86
2022/10/08 00:02:48;;;;;;;25.33;17.30;;;;;;;9.88;100.00;96633.69;4995283;28;20069;-85
2022/10/08 00:07:44;;;;;;;21.45;16.20;;;;;;;9.82;100.00;96626.75;5050177;23;20117;-86
2022/10/08 00:10:11;;;;;;;21.50;16.02;;;;;;;9.88;100.00;96625.53;5026208;28;20050;-85
2022/10/08 00:12:38;;;;;;;20.33;15.25;;;;;;;9.93;100.00;96636.28;5026707;28;20070;-86
2022/10/08 00:15:05;;;;;;;20.88;15.82;;;;;;;9.85;100.00;96639.72;5041370;22;20475;-85
2022/10/08 00:17:32;;;;;;;22.88;15.02;;;;;;;9.79;100.00;96633.59;5009789;28;20057;-86
2022/10/08 00:20:00;;;;;;;19.38;15.18;;;;;;;9.76;100.00;96636.94;5027748;28;20056;-87
2022/10/08 00:25:28;;;;;;;21.05;16.38;;;;;;;9.65;100.00;96628.19;4958203;28;20048;-87
2022/10/08 00:27:55;;;;;;;20.73;15.38;;;;;;;9.63;100.00;96630.41;4950610;29;20028;-87
2022/10/08 00:30:22;;;;;;;22.38;15.55;;;;;;;9.54;100.00;96632.22;4935751;29;20059;-87
2022/10/08 00:32:48;;;;;;;19.45;14.65;;;;;;;9.59;100.00;96634.84;4951146;29;20047;-86
2022/10/08 00:35:15;;;;;;;22.23;15.85;;;;;;;9.55;100.00;96623.00;4950064;29;20047;-86
2022/10/08 00:37:42;;;;;;;21.90;16.55;;;;;;;9.41;100.00;96627.63;4950345;29;20054;-87
2022/10/08 00:40:10;;;;;;;23.88;16.42;;;;;;;9.39;100.00;96629.81;4950180;29;20111;-87
2022/10/08 00:42:38;;;;;;;31.38;14.40;;;;;;;9.44;100.00;96631.63;4936668;29;20052;-87
2022/10/08 00:45:06;;;;;;;24.77;16.05;;;;;;;9.43;100.00;96622.69;4965050;28;20047;-86
2022/10/08 00:47:42;;;;;;;22.27;16.65;;;;;;;9.45;100.00;96623.19;4973140;28;20055;-86
2022/10/08 00:50:13;;;;;;;19.80;14.75;;;;;;;9.55;100.00;96625.72;4972721;28;20049;-86
2022/10/08 00:52:43;;;;;;;21.38;15.43;;;;;;;9.47;100.00;96620.97;5013053;28;20046;-85
2022/10/08 00:55:14;;;;;;;20.95;15.63;;;;;;;9.38;100.00;96622.78;5011658;28;20074;-86
2022/10/08 00:57:43;;;;;;;21.23;15.85;;;;;;;9.46;100.00;96616.66;5013574;28;20094;-86
2022/10/08 01:00:13;;;;;;;18.73;14.57;;;;;;;9.49;100.00;96616.03;4995149;28;20046;-86
2022/10/08 01:02:40;;;;;;;17.63;13.23;;;;;;;9.57;99.61;96615.31;5014515;28;20057;-85
2022/10/08 01:05:08;;;;;;;16.90;13.27;;;;;;;9.65;99.29;96616.50;5009734;28;20053;-85
2022/10/08 01:07:56;;;;;;;19.52;14.68;;;;;;;9.56;99.67;96605.56;5012373;28;20046;-86
2022/10/08 01:10:30;;;;;;;26.98;14.73;;;;;;;9.65;99.42;96603.69;5009459;28;20065;-87
2022/10/08 01:13:13;;;;;;;20.92;13.40;;;;;;;9.67;99.33;96606.13;5012147;28;20046;-87
2022/10/08 01:15:48;;;;;;;21.17;13.65;;;;;;;9.60;99.19;96598.38;5012525;28;20073;-87
2022/10/08 01:18:22;;;;;;;42.20;26.45;;;;;;;9.46;98.78;96592.19;4995480;28;20129;-87
2022/10/08 01:20:57;;;;;;;33.47;17.05;;;;;;;9.40;98.92;96588.78;4996989;28;20042;-86
2022/10/08 01:23:36;;;;;;;28.25;14.95;;;;;;;9.37;99.18;96594.00;5011196;28;20057;-86
2022/10/08 01:26:17;;;;;;;27.33;12.85;;;;;;;9.46;98.98;96586.75;5001595;28;20098;-80
2022/10/08 01:28:51;;;;;;;142.18;63.00;;;;;;;9.44;98.79;96580.00;4993511;28;20043;-86
2022/10/08 01:31:23;;;;;;;79.38;32.75;;;;;;;9.41;98.81;96589.56;4994391;28;20061;-86
2022/10/08 01:33:54;;;;;;;62.05;22.55;;;;;;;9.46;98.59;96592.19;4994174;28;20050;-87
2022/10/08 01:36:23;;;;;;;99.45;51.38;;;;;;;9.51;98.23;96589.34;4975950;28;20141;-88
2022/10/08 01:38:55;;;;;;;44.28;39.55;;;;;;;9.52;98.35;96590.97;5003380;28;20046;-87
2022/10/08 01:41:29;;;;;;;29.98;26.05;;;;;;;9.54;97.98;96591.44;5001852;28;20064;-87
2022/10/08 01:44:02;;;;;;;16.33;12.60;;;;;;;9.45;97.87;96579.72;5011230;28;20042;-86
2022/10/08 01:46:31;;;;;;;16.20;13.13;;;;;;;9.44;97.90;96583.50;4994742;28;20046;-87
2022/10/08 01:49:04;;;;;;;21.98;10.27;;;;;;;9.47;97.48;96582.91;4978841;28;20046;-87
2022/10/08 01:51:34;;;;;;;16.83;13.25;;;;;;;9.39;97.37;96575.47;5010927;28;20042;-85
2022/10/08 01:54:04;;;;;;;16.90;13.38;;;;;;;9.33;97.95;96577.50;5011670;28;20054;-86
2022/10/08 01:56:33;;;;;;;15.85;11.88;;;;;;;9.39;97.72;96576.28;4990292;28;20117;-87
2022/10/08 01:59:04;;;;;;;17.20;13.43;;;;;;;9.37;97.61;96574.97;4992444;28;20057;-87
2022/10/08 02:01:36;;;;;;;18.40;13.55;;;;;;;9.28;97.94;96574.88;4992138;28;20039;-86
2022/10/08 02:06:54;;;;;;;18.58;12.32;;;;;;;9.29;97.73;96572.97;4992319;28;20053;-85
2022/10/08 02:09:36;;;;;;;18.05;11.65;;;;;;;9.36;97.70;96570.66;4991523;28;20061;-87
2022/10/08 02:12:06;;;;;;;20.48;13.57;;;;;;;9.24;98.19;96573.91;5006983;28;20073;-86
2022/10/08 02:14:36;;;;;;;18.10;11.68;;;;;;;9.36;97.94;96576.09;5012219;28;20047;-86
2022/10/08 02:17:16;;;;;;;22.52;13.88;;;;;;;9.36;97.56;96565.22;5011238;28;20042;-85
2022/10/08 02:19:51;;;;;;;22.08;12.90;;;;;;;9.33;97.99;96560.38;5010019;28;20110;-86
2022/10/08 02:28:09;;;;;;;20.52;12.35;;;;;;;9.10;99.53;96563.03;5011505;28;20069;-86
2022/10/08 02:30:43;;;;;;;21.23;14.52;;;;;;;9.11;99.50;96563.84;4993663;28;20046;-86
2022/10/08 02:33:14;;;;;;;19.77;13.50;;;;;;;8.96;99.96;96570.38;4991791;28;20056;-86
2022/10/08 02:35:46;;;;;;;20.27;13.30;;;;;;;9.02;100.00;96574.59;5010998;28;20054;-85
2022/10/08 02:38:19;;;;;;;14.80;11.70;;;;;;;9.12;100.00;96566.25;4992998;28;20065;-86
2022/10/08 02:40:50;;;;;;;19.15;11.95;;;;;;;9.27;99.25;96561.59;4992522;28;20504;-86
2022/10/08 02:43:22;;;;;;;18.02;12.43;;;;;;;9.31;99.17;96568.06;5009775;28;20489;-86
2022/10/08 02:45:55;;;;;;;21.30;12.65;;;;;;;9.35;99.08;96569.06;4993948;28;20111;-86
2022/10/08 02:48:37;;;;;;;15.98;10.27;;;;;;;9.40;98.93;96567.03;4993577;28;20139;-87
2022/10/08 02:51:07;;;;;;;20.60;11.07;;;;;;;9.41;98.52;96559.69;5008337;28;20049;-86
2022/10/08 02:53:38;;;;;;;17.33;11.10;;;;;;;9.37;98.75;96566.81;5010566;28;20050;-88
2022/10/08 02:56:11;;;;;;;18.52;11.60;;;;;;;9.38;98.32;96555.63;5009209;28;20062;-86
2022/10/08 02:58:38;;;;;;;14.63;10.38;;;;;;;9.44;97.99;96556.34;5011587;28;20046;-86
2022/10/08 03:01:11;;;;;;;15.57;10.88;;;;;;;9.35;98.03;96558.19;5009749;28;20042;-87
2022/10/08 03:03:43;;;;;;;;;;;;;;;9.35;97.97;96552.75;5011532;28;20506;-87
2022/10/08 03:06:12;;;;;;;13.80;9.38;;;;;;;9.41;97.81;96548.81;5010094;28;19918;-87
2022/10/08 03:08:43;;;;;;;114.10;25.08;;;;;;;9.46;97.28;96558.75;5029200;23;20042;-87
2022/10/08 03:11:11;;;;;;;11.35;8.63;;;;;;;9.49;97.46;96548.06;5052848;28;20025;-85
2022/10/08 03:13:42;;;;;;;27.73;12.65;;;;;;;9.46;97.34;96554.13;5156377;23;20083;-87
2022/10/08 03:19:03;;;;;;;15.15;9.85;;;;;;;9.53;97.23;96559.94;5030184;28;20088;-87
2022/10/08 03:21:30;;;;;;;11.10;8.70;;;;;;;9.57;97.03;96555.50;5030454;28;20054;-86
2022/10/08 03:23:57;;;;;;;14.48;10.18;;;;;;;9.43;97.38;96554.72;5029047;28;20050;-86
2022/10/08 03:26:24;;;;;;;12.43;8.68;;;;;;;9.53;97.54;96554.50;5030043;28;20042;-86
2022/10/08 03:28:53;;;;;;;11.38;9.13;;;;;;;9.57;97.40;96555.50;5030557;28;20042;-85
2022/10/08 03:31:21;;;;;;;14.05;8.68;;;;;;;9.59;97.51;96557.91;5012098;28;20045;-87
2022/10/08 03:33:49;;;;;;;12.63;9.73;;;;;;;9.52;97.68;96552.91;5029169;28;20136;-87
2022/10/08 03:36:16;;;;;;;16.00;9.77;;;;;;;9.54;97.49;96558.81;5012600;28;20077;-88
2022/10/08 03:38:50;;;;;;;14.98;9.88;;;;;;;9.59;97.61;96558.72;5030508;28;20042;-87
2022/10/08 03:41:18;;;;;;;16.83;9.88;;;;;;;9.56;97.78;96553.91;5029978;28;20176;-86
2022/10/08 03:43:45;;;;;;;17.10;9.50;;;;;;;9.58;98.00;96554.38;5029461;28;20106;-87
2022/10/08 03:46:14;;;;;;;16.92;9.05;;;;;;;9.58;98.09;96556.31;5012409;28;20052;-86
2022/10/08 03:48:43;;;;;;;11.25;7.60;;;;;;;9.68;97.69;96559.59;5030607;28;20058;-87
2022/10/08 03:51:12;;;;;;;13.10;7.90;;;;;;;9.71;97.76;96565.53;5029941;28;20114;-86
2022/10/08 03:53:40;;;;;;;14.23;8.27;;;;;;;9.72;97.92;96575.31;5015152;28;20106;-86
2022/10/08 03:56:09;;;;;;;12.55;8.05;;;;;;;9.75;97.70;96571.97;5033689;28;20132;-87
2022/10/08 03:58:35;;;;;;;19.05;8.93;;;;;;;9.60;97.97;96576.63;5015521;28;20109;-86
2022/10/08 04:01:04;;;;;;;16.05;8.30;;;;;;;9.63;97.86;96572.50;5016210;28;20077;-85
2022/10/08 04:03:32;;;;;;;16.77;8.23;;;;;;;9.63;97.87;96570.59;5032985;28;20105;-86
2022/10/08 04:06:00;;;;;;;15.60;8.25;;;;;;;9.46;97.82;96570.44;5015468;28;20133;-87
2022/10/08 04:08:27;;;;;;;14.63;7.57;;;;;;;9.56;97.82;96570.22;5033267;28;20110;-86
2022/10/08 04:10:53;;;;;;;14.23;8.63;;;;;;;9.51;97.90;96572.25;5031547;28;20077;-85
2022/10/08 04:13:20;;;;;;;19.90;8.82;;;;;;;9.53;98.08;96565.38;5014260;28;20061;-86
2022/10/08 04:15:49;;;;;;;13.38;7.68;;;;;;;9.52;98.64;96566.50;5014730;28;20057;-87
2022/10/08 04:18:16;;;;;;;19.92;8.82;;;;;;;9.44;99.62;96564.47;5031895;28;20049;-87
2022/10/08 04:20:43;;;;;;;10.00;7.75;;;;;;;9.56;99.41;96564.78;5016698;28;20489;-87
2022/10/08 04:23:11;;;;;;;19.08;7.80;;;;;;;9.69;98.47;96565.84;5015868;28;20056;-87
2022/10/08 04:25:38;;;;;;;13.57;7.32;;;;;;;9.75;98.06;96561.09;5034818;28;20049;-87
2022/10/08 04:28:05;;;;;;;11.27;7.45;;;;;;;9.78;98.17;96560.47;5025452;28;20105;-87
2022/10/08 04:30:32;;;;;;;11.25;7.15;;;;;;;9.83;98.42;96560.38;4997307;28;20389;-86
2022/10/08 04:33:18;;;;;;;15.40;7.80;;;;;;;9.81;98.50;96562.56;5012494;28;20137;-86
2022/10/08 04:35:45;;;;;;;14.70;6.93;;;;;;;9.89;98.77;96567.28;5012478;28;20129;-86
2022/10/08 04:38:13;;;;;;;14.30;7.68;;;;;;;9.86;98.81;96565.16;5036262;23;20120;-86
2022/10/08 04:40:40;;;;;;;14.80;7.15;;;;;;;9.91;99.06;96563.13;5035277;28;20046;-87
2022/10/08 04:43:07;;;;;;;25.02;9.07;;;;;;;9.88;99.26;96566.50;5017513;28;20042;-86
2022/10/08 04:45:34;;;;;;;11.65;8.02;;;;;;;9.90;99.55;96571.63;5051689;28;20046;-87
2022/10/08 04:48:01;;;;;;;9.45;7.13;;;;;;;10.03;99.25;96568.03;5034794;28;20097;-86
2022/10/08 04:50:28;;;;;;;11.95;5.95;;;;;;;10.09;98.58;96564.09;5034704;28;20084;-87
2022/10/08 04:52:55;;;;;;;17.67;7.75;;;;;;;10.03;99.51;96570.75;5049673;28;20492;-86
2022/10/08 04:55:24;;;;;;;16.10;6.60;;;;;;;10.12;99.07;96574.34;5049573;28;20076;-86
2022/10/08 04:57:51;;;;;;;17.35;6.43;;;;;;;10.15;99.47;96568.28;5051340;28;20049;-87
2022/10/08 05:00:18;;;;;;;58.83;11.00;;;;;;;10.17;99.50;96563.31;5051220;28;20068;-87
2022/10/08 05:02:45;;;;;;;10.05;6.53;;;;;;;10.27;99.20;96565.03;5034516;28;20045;-87
2022/10/08 05:05:11;;;;;;;14.57;6.85;;;;;;;10.33;99.40;96557.53;5049700;28;20132;-87
2022/10/08 05:07:38;;;;;;;13.50;7.15;;;;;;;10.32;99.30;96564.09;5051024;28;20063;-86
2022/10/08 05:10:05;;;;;;;17.17;7.60;;;;;;;10.41;99.28;96568.47;5051384;28;20049;-85
2022/10/08 05:12:33;;;;;;;19.83;8.18;;;;;;;10.46;99.01;96575.72;5034965;28;20055;-87
2022/10/08 05:15:00;;;;;;;11.32;6.40;;;;;;;10.52;99.21;96573.66;5031335;28;20046;-87
2022/10/08 05:17:27;;;;;;;13.57;6.97;;;;;;;10.57;99.33;96578.97;5033056;28;20120;-87
2022/10/08 05:19:53;;;;;;;16.95;6.97;;;;;;;10.52;99.28;96574.47;5015652;28;20056;-86
2022/10/08 05:22:20;;;;;;;11.60;6.55;;;;;;;10.59;99.08;96577.53;5031978;28;20053;-86
2022/10/08 05:24:46;;;;;;;13.43;6.20;;;;;;;10.63;98.83;96578.53;5030716;28;20038;-86
2022/10/08 05:27:13;;;;;;;13.13;6.60;;;;;;;10.63;98.82;96581.25;5014045;28;20050;-86
2022/10/08 05:29:41;;;;;;;12.13;6.35;;;;;;;10.66;98.84;96583.34;5030947;28;20105;-86
2022/10/08 05:32:07;;;;;;;25.35;6.38;;;;;;;10.72;98.39;96584.03;5030899;28;20113;-86
2022/10/08 05:34:34;;;;;;;11.75;6.55;;;;;;;10.74;98.42;96592.69;5030305;28;20026;-86
2022/10/08 05:37:01;;;;;;;243.73;21.42;;;;;;;10.77;98.64;96592.06;5042425;23;20072;-85
2022/10/08 05:39:28;;;;;;;12.55;7.13;;;;;;;10.76;98.64;96600.56;5033709;28;20072;-86
2022/10/08 05:41:58;;;;;;;20.38;6.72;;;;;;;10.78;98.89;96592.88;5045890;28;20064;-78
2022/10/08 05:44:24;;;;;;;18.90;6.22;;;;;;;10.83;98.62;96595.44;5041124;28;20045;-82
2022/10/08 05:46:52;;;;;;;29.25;6.93;;;;;;;10.85;98.67;96604.09;5033627;28;20067;-82
2022/10/08 05:49:22;;;;;;;22.98;7.65;;;;;;;10.85;98.76;96599.47;5040953;28;20083;-81
2022/10/08 05:51:49;;;;;;;23.20;7.65;;;;;;;10.83;98.89;96600.91;5024641;28;20095;-81
2022/10/08 05:54:17;;;;;;;36.40;8.00;;;;;;;10.80;98.71;96606.97;5033279;28;20081;-82
2022/10/08 05:56:44;;;;;;;17.38;6.53;;;;;;;10.81;98.43;96603.94;5008263;28;20046;-79
2022/10/08 05:59:15;;;;;;;15.48;6.38;;;;;;;10.82;98.25;96605.53;5029524;28;20045;-85
2022/10/08 06:01:42;;;;;;;20.50;6.50;;;;;;;10.85;98.10;96609.56;5037593;28;20042;-81
2022/10/08 06:04:11;;;;;;;21.40;6.97;;;;;;;10.77;98.25;96610.31;5037163;28;20531;-81
2022/10/08 06:06:40;;;;;;;34.53;8.13;;;;;;;10.68;98.07;96616.53;5020014;28;20056;-80
2022/10/08 06:09:08;;;;;;;15.75;7.05;;;;;;;10.67;97.68;96609.47;5027345;28;20555;-82
2022/10/08 06:11:37;;;;;;;26.75;8.32;;;;;;;10.64;98.09;96620.19;4999206;28;20046;-82
2022/10/08 06:14:05;;;;;;;15.35;6.78;;;;;;;10.68;98.19;96627.41;5016447;28;20401;-82
2022/10/08 06:16:33;;;;;;;28.58;8.20;;;;;;;10.66;98.11;96624.22;5017810;28;20045;-82
2022/10/08 06:19:00;;;;;;;14.93;7.38;;;;;;;10.69;98.41;96625.50;5015974;28;21024;-81
2022/10/08 06:21:29;;;;;;;21.75;6.80;;;;;;;10.77;98.27;96621.22;4997778;28;20042;-81
2022/10/08 06:23:58;;;;;;;22.52;6.78;;;;;;;10.82;98.02;96621.09;5030644;28;20042;-80
2022/10/08 06:26:26;;;;;;;16.65;7.55;;;;;;;10.84;97.89;96618.84;5035205;28;20124;-80
2022/10/08 06:29:01;;;;;;;17.63;6.90;;;;;;;10.86;97.96;96627.53;5035563;28;20707;-80
2022/10/08 06:31:28;;;;;;;22.40;8.27;;;;;;;10.82;98.14;96623.81;5035904;28;20129;-80
2022/10/08 06:33:56;;;;;;;43.13;9.07;;;;;;;10.84;98.12;96632.47;5018356;28;20053;-81
2022/10/08 06:36:28;;;;;;;12.85;6.82;;;;;;;10.90;97.80;96628.50;5034842;28;20076;-81
2022/10/08 06:38:58;;;;;;;15.13;8.10;;;;;;;10.91;97.88;96636.38;5038643;28;20057;-84
2022/10/08 06:41:26;;;;;;;22.45;8.52;;;;;;;10.93;98.02;96633.31;5046478;28;20041;-85
2022/10/08 06:43:54;;;;;;;13.90;8.00;;;;;;;11.00;98.17;96635.59;5047302;28;20101;-85
2022/10/08 06:46:21;;;;;;;14.45;7.10;;;;;;;11.07;98.32;96634.03;5031180;28;20100;-85
2022/10/08 06:48:48;;;;;;;22.45;11.90;;;;;;;11.11;98.39;96640.44;5026073;28;20413;-86
2022/10/08 06:51:33;;;;;;;18.55;8.10;;;;;;;11.09;98.57;96633.72;5009930;28;20491;-86
2022/10/08 06:54:01;;;;;;;12.02;6.90;;;;;;;11.24;98.63;96638.75;5028029;28;20243;-84
2022/10/08 06:56:28;;;;;;;14.80;7.03;;;;;;;11.39;98.16;96640.25;5007055;28;20046;-81
2022/10/08 06:58:55;;;;;;;14.93;7.43;;;;;;;11.41;98.23;96643.44;5014455;28;20044;-83
2022/10/08 07:01:23;;;;;;;15.30;7.72;;;;;;;11.50;97.97;96649.75;5040172;28;20041;-83
2022/10/08 07:03:54;;;;;;;13.90;7.00;;;;;;;11.65;97.71;96660.22;5043762;28;20050;-84
2022/10/08 07:06:21;;;;;;;16.25;7.22;;;;;;;11.85;96.86;96647.94;5041835;28;20045;-84
2022/10/08 07:08:51;;;;;;;17.83;6.90;;;;;;;11.84;95.95;96650.97;5023381;28;20049;-82
2022/10/08 07:11:20;;;;;;;16.65;6.93;;;;;;;12.18;95.15;96659.19;5040421;28;20052;-83
2022/10/08 07:13:47;;;;;;;19.08;7.43;;;;;;;12.54;93.06;96663.53;5040119;28;20055;-81
2022/10/08 07:16:16;;;;;;;21.70;7.55;;;;;;;12.90;92.38;96660.41;5038781;28;20064;-83
2022/10/08 07:18:42;;;;;;;24.10;7.38;;;;;;;12.88;89.21;96668.13;5021724;28;20049;-82
2022/10/08 07:21:12;;;;;;;17.13;7.25;;;;;;;12.88;91.65;96667.31;5037395;28;20091;-82
2022/10/08 07:23:39;;;;;;;29.63;7.70;;;;;;;12.98;91.53;96666.97;5036258;28;20144;-79
2022/10/08 07:26:08;;;;;;;32.17;7.22;;;;;;;12.94;91.46;96672.28;5016372;28;20511;-79
2022/10/08 07:28:38;;;;;;;24.42;7.10;;;;;;;13.14;91.68;96676.25;5037856;28;20103;-80
2022/10/08 07:31:08;;;;;;;32.72;8.05;;;;;;;13.21;91.27;96683.97;5034461;28;20124;-80
2022/10/08 07:33:35;;;;;;;26.92;7.20;;;;;;;13.32;91.51;96683.31;5034141;28;20148;-80
2022/10/08 07:36:09;;;;;;;30.45;7.68;;;;;;;13.48;91.01;96691.00;5024402;28;20052;-80
2022/10/08 07:38:36;;;;;;;38.03;8.00;;;;;;;13.49;89.88;96681.63;5022684;28;20076;-79
2022/10/08 07:41:02;;;;;;;18.25;6.43;;;;;;;13.39;89.55;96684.75;5034652;28;20067;-79
2022/10/08 07:43:29;;;;;;;27.00;7.18;;;;;;;13.46;90.70;96688.56;5034447;28;20057;-80
2022/10/08 07:46:00;;;;;;;20.27;6.53;;;;;;;13.60;90.43;96685.63;4998641;28;20068;-82
2022/10/08 07:48:28;;;;;;;27.65;7.00;;;;;;;13.68;90.54;96690.25;4997751;28;20034;-80
2022/10/08 07:50:56;;;;;;;20.77;6.72;;;;;;;13.63;90.41;96693.19;5016120;28;20056;-81
2022/10/08 07:53:23;;;;;;;35.45;7.68;;;;;;;13.74;90.96;96694.41;5020347;28;20051;-80
2022/10/08 07:55:50;;;;;;;26.55;7.78;;;;;;;13.89;91.97;96694.97;5005999;28;20118;-80
2022/10/08 07:58:17;;;;;;;25.02;7.90;;;;;;;13.98;91.39;96690.22;5015603;28;20873;-81
2022/10/08 08:00:43;;;;;;;31.08;8.57;;;;;;;14.06;91.87;96694.88;5015827;28;20061;-81
2022/10/08 08:03:14;;;;;;;41.58;9.98;;;;;;;14.00;89.65;96702.47;5014267;28;20046;-81
2022/10/08 08:05:40;;;;;;;38.72;8.57;;;;;;;14.16;90.63;96699.94;5012973;28;20464;-81
2022/10/08 08:08:07;;;;;;;43.35;9.63;;;;;;;14.15;90.07;96692.88;5012236;28;20420;-81
2022/10/08 08:10:34;;;;;;;41.97;8.55;;;;;;;14.15;90.04;96700.25;4994807;28;20130;-81
2022/10/08 08:13:01;;;;;;;26.02;8.43;;;;;;;14.18;90.97;96697.69;5012186;28;20632;-80
2022/10/08 08:15:27;;;;;;;36.42;8.88;;;;;;;14.20;92.17;96700.06;5006988;28;20056;-80
2022/10/08 08:17:54;;;;;;;37.42;8.75;;;;;;;14.27;91.62;96712.13;5032803;28;20050;-80
2022/10/08 08:20:22;;;;;;;24.48;8.23;;;;;;;14.46;91.59;96697.16;5032057;28;20049;-81
2022/10/08 08:22:49;;;;;;;31.55;8.27;;;;;;;14.49;90.47;96702.00;5032274;28;20048;-79
2022/10/08 08:25:15;;;;;;;39.20;9.05;;;;;;;14.66;90.45;96701.03;5031882;28;20457;-83
2022/10/08 08:27:42;;;;;;;29.23;8.90;;;;;;;14.61;91.30;96699.31;5032256;28;20053;-80
2022/10/08 08:30:10;;;;;;;37.20;8.27;;;;;;;14.56;90.15;96699.50;5031856;28;20136;-80
2022/10/08 08:32:36;;;;;;;35.75;8.18;;;;;;;14.49;90.23;96702.00;5031895;28;20046;-81
2022/10/08 08:35:06;;;;;;;39.38;8.63;;;;;;;14.61;89.40;96700.09;5031804;28;20057;-80
2022/10/08 08:37:34;;;;;;;35.05;8.70;;;;;;;14.73;89.18;96696.63;5032559;28;20432;-82
2022/10/08 08:40:01;;;;;;;23.27;7.47;;;;;;;14.80;89.43;96696.09;5034908;28;20124;-80
2022/10/08 08:42:53;;;;;;;39.40;9.75;;;;;;;14.83;90.00;96696.22;5034301;28;20045;-80
2022/10/08 08:45:26;;;;;;;23.80;8.25;;;;;;;14.87;89.70;96696.34;5032348;28;20132;-81
2022/10/08 08:47:59;;;;;;;;;;;;;;;14.96;89.85;96694.31;5020801;28;20125;-82
2022/10/08 08:50:29;;;;;;;34.40;9.00;;;;;;;14.86;89.35;96705.69;5019828;28;19975;-82
2022/10/08 08:52:58;;;;;;;17.70;8.27;;;;;;;14.83;89.53;96701.72;5018373;28;20056;-81
2022/10/08 08:55:34;;;;;;;31.63;9.25;;;;;;;14.86;90.54;96698.28;5036356;28;20047;-82
2022/10/08 08:58:12;;;;;;;18.58;8.73;;;;;;;14.82;91.67;96705.56;5038111;28;20041;-84
2022/10/08 09:00:42;;;;;;;33.08;9.48;;;;;;;14.82;90.75;96715.72;5041393;28;20049;-83
2022/10/08 09:03:18;;;;;;;39.90;10.80;;;;;;;14.98;90.82;96714.00;5038788;28;20057;-81
2022/10/08 09:05:49;;;;;;;29.98;8.90;;;;;;;15.00;91.02;96708.16;5037658;28;20511;-82
2022/10/08 09:08:22;;;;;;;27.88;8.90;;;;;;;15.14;89.84;96716.91;5038524;28;20076;-83
2022/10/08 09:10:55;;;;;;;20.75;8.82;;;;;;;15.06;89.28;96715.84;5040311;28;20076;-83
2022/10/08 09:13:24;;;;;;;;;;;;;;;15.21;89.39;96717.13;5041945;28;20052;-83
2022/10/08 09:15:52;;;;;;;19.55;8.55;;;;;;;15.17;90.62;96713.47;5043621;28;19932;-83
2022/10/08 09:18:21;;;;;;;31.45;9.38;;;;;;;15.18;89.14;96720.53;5027966;28;20053;-86
2022/10/08 09:20:49;;;;;;;30.10;9.85;;;;;;;15.25;91.30;96717.28;5043431;28;20049;-85
2022/10/08 09:23:19;;;;;;;26.77;9.05;;;;;;;15.32;90.20;96717.50;5023613;28;20053;-84
2022/10/08 09:25:52;;;;;;;26.20;9.43;;;;;;;15.25;89.12;96715.31;5042953;28;20117;-82
2022/10/08 09:28:44;;;;;;;27.17;9.45;;;;;;;15.30;89.55;96708.81;5043033;28;20041;-85
2022/10/08 09:31:28;;;;;;;31.58;10.18;;;;;;;15.39;89.21;96710.31;5041162;28;20041;-83
2022/10/08 09:34:01;;;;;;;22.10;9.23;;;;;;;15.38;89.63;96716.16;5046950;28;20045;-83
2022/10/08 09:36:37;;;;;;;26.27;9.63;;;;;;;15.48;87.86;96723.13;5043330;28;20121;-85
2022/10/08 09:39:14;;;;;;;39.75;10.93;;;;;;;15.46;86.98;96718.00;5038548;28;20049;-84
2022/10/08 09:41:41;;;;;;;27.83;9.43;;;;;;;15.48;87.49;96725.88;5046510;28;20445;-84
2022/10/08 09:44:22;;;;;;;15.38;9.05;;;;;;;15.51;87.55;96730.72;5045253;28;20053;-84
2022/10/08 09:47:03;;;;;;;18.45;8.73;;;;;;;15.66;86.59;96724.59;5026419;28;20049;-83
2022/10/08 09:49:32;;;;;;;29.98;9.68;;;;;;;15.54;86.25;96721.78;5025495;28;20045;-84
2022/10/08 09:52:04;;;;;;;21.30;8.80;;;;;;;15.64;86.38;96724.09;5046088;28;20052;-85
2022/10/08 09:54:36;;;;;;;19.90;8.55;;;;;;;15.73;86.46;96727.56;5027498;28;20049;-84
2022/10/08 09:57:03;;;;;;;30.13;9.55;;;;;;;15.72;85.96;96731.44;5044415;28;20050;-82
2022/10/08 09:59:36;;;;;;;29.50;9.38;;;;;;;15.75;85.85;96727.19;5027160;28;20045;-84
2022/10/08 10:02:23;;;;;;;;;;;;;;;15.65;85.87;96718.25;5019173;28;20049;-81
2022/10/08 10:04:53;;;;;;;28.25;10.52;;;;;;;15.62;86.18;96718.94;5036948;28;19921;-80
2022/10/08 10:07:20;;;;;;;23.58;8.68;;;;;;;15.58;85.51;96722.69;5019542;28;20045;-81
2022/10/08 10:09:52;;;;;;;25.45;9.63;;;;;;;15.59;85.87;96716.06;5018539;28;20064;-81
2022/10/08 10:12:30;;;;;;;26.40;9.20;;;;;;;15.67;86.22;96723.44;5033376;28;20045;-81
2022/10/08 10:15:02;;;;;;;27.17;9.23;;;;;;;15.86;85.59;96704.44;5039825;28;20052;-79
2022/10/08 10:17:36;;;;;;;31.08;9.40;;;;;;;15.80;83.89;96705.81;5035703;28;20069;-80
2022/10/08 10:20:11;;;;;;;33.97;9.85;;;;;;;15.77;83.66;96703.75;5037503;28;20116;-83
2022/10/08 10:22:56;;;;;;;38.30;8.95;;;;;;;15.82;82.88;96713.72;5039617;28;20179;-82
2022/10/08 10:25:33;;;;;;;23.48;8.65;;;;;;;15.85;84.34;96704.78;5035872;28;20054;-81
2022/10/08 10:28:04;;;;;;;17.40;7.47;;;;;;;15.89;82.47;96702.97;5041957;28;20128;-82
2022/10/08 10:30:47;;;;;;;16.20;8.52;;;;;;;15.99;82.83;96707.19;5020566;28;20072;-81
2022/10/08 10:33:18;;;;;;;25.20;8.77;;;;;;;16.05;82.97;96700.31;5041253;28;20519;-84
2022/10/08 10:35:51;;;;;;;27.25;8.95;;;;;;;15.93;82.74;96692.91;5041202;28;20072;-83
2022/10/08 10:38:32;;;;;;;16.67;8.32;;;;;;;15.98;83.07;96691.88;5041652;28;20053;-83
2022/10/08 10:41:13;;;;;;;28.73;8.68;;;;;;;16.01;82.62;96688.41;5043496;28;20045;-83
2022/10/08 10:43:47;;;;;;;21.85;8.60;;;;;;;16.10;82.15;96695.38;5036880;28;20087;-84
2022/10/08 10:46:23;;;;;;;23.45;8.43;;;;;;;16.01;82.67;96694.69;5019158;28;20445;-81
2022/10/08 10:48:50;;;;;;;32.83;9.73;;;;;;;16.04;82.91;96698.72;5036829;28;20716;-81
2022/10/08 10:51:50;;;;;;;28.13;9.10;;;;;;;15.94;82.67;96693.69;5037155;28;20053;-83
2022/10/08 10:54:37;;;;;;;32.90;10.25;;;;;;;15.95;82.68;96695.28;5024475;28;20048;-83
2022/10/08 10:57:20;;;;;;;20.20;9.35;;;;;;;15.93;83.01;96697.59;5038242;28;20105;-80
2022/10/08 10:59:52;;;;;;;21.13;9.15;;;;;;;15.88;82.34;96696.66;5039756;28;20037;-81
2022/10/08 11:02:27;;;;;;;26.42;9.00;;;;;;;15.77;83.34;96690.03;5036615;28;20047;-83
2022/10/08 11:05:04;;;;;;;20.60;8.18;;;;;;;15.94;84.11;96693.69;5036908;28;20068;-81
2022/10/08 11:07:58;;;;;;;18.08;7.93;;;;;;;16.01;82.77;96693.91;5035380;28;20049;-82
2022/10/08 11:10:45;;;;;;;23.77;8.52;;;;;;;15.89;82.61;96681.78;5033082;28;20046;-81
2022/10/08 11:13:29;;;;;;;26.90;9.38;;;;;;;15.76;82.41;96690.34;5034981;28;20489;-83
2022/10/08 11:16:01;;;;;;;;;;;;;;;15.71;83.56;96685.91;5036526;28;20060;-81
2022/10/08 11:18:37;;;;;;;25.90;9.33;;;;;;;15.73;84.13;96683.63;5037554;28;19925;-81
2022/10/08 11:21:15;;;;;;;29.95;8.90;;;;;;;15.68;83.82;96689.34;5035855;28;20076;-79
2022/10/08 11:24:09;;;;;;;31.85;8.50;;;;;;;15.74;83.25;96690.72;5035546;28;20045;-79
2022/10/08 11:26:43;;;;;;;31.83;9.15;;;;;;;15.73;83.84;96688.31;5042040;28;20552;-81
2022/10/08 11:29:19;;;;;;;28.27;9.20;;;;;;;15.84;83.22;96695.75;5041383;28;20128;-83
2022/10/08 11:31:48;;;;;;;27.48;9.00;;;;;;;15.74;84.02;96689.91;5043874;28;20101;-82
2022/10/08 11:34:22;;;;;;;28.27;9.77;;;;;;;15.62;84.81;96690.69;5040855;28;20423;-81
2022/10/08 11:37:00;;;;;;;26.60;10.25;;;;;;;15.60;84.73;96695.69;5022991;28;20045;-82
2022/10/08 11:39:36;;;;;;;25.50;10.70;;;;;;;15.59;84.77;96694.91;5039668;28;20495;-81
2022/10/08 11:42:14;;;;;;;18.55;9.23;;;;;;;15.67;84.29;96689.69;5038072;28;20053;-83
2022/10/08 11:44:44;;;;;;;24.70;9.77;;;;;;;15.78;84.66;96686.13;5022174;28;20053;-80
2022/10/08 11:47:53;;;;;;;32.97;10.48;;;;;;;15.73;83.96;96683.63;5038117;28;20049;-81
2022/10/08 11:50:30;;;;;;;30.30;11.25;;;;;;;15.56;84.69;96681.09;5034038;28;20045;-81
2022/10/08 11:53:01;;;;;;;20.02;10.95;;;;;;;15.58;85.32;96681.53;5039488;28;20092;-81
2022/10/08 11:55:31;;;;;;;26.38;10.90;;;;;;;15.54;85.60;96686.09;5038921;28;20485;-80
2022/10/08 11:58:01;;;;;;;29.85;10.20;;;;;;;15.61;84.86;96684.41;5037047;28;20588;-82
2022/10/08 12:00:41;;;;;;;26.13;10.60;;;;;;;15.48;84.85;96679.22;5017040;28;20049;-81